• Join FlightAware (Why Join?)
  • Login
  • US Flag 
06:11PM EDT


 

Airport Tracker/Info


-or-


 

Live Flight TrackerFlight Track Log ✈ WJA2347 ✈ 07-May-2013 ✈ MMPR / PVR - CYYC

Flight Track Log - Related Links

Times and Time Zones

All times are in EDT time to prevent confusion due to time zone crossing. See the WJA2347 flight status page for this flight to view local times or setup timezone preferences in your user account.

Time Position Orientation Groundspeed Altitude Reporting Facility
EDT Latitude Longitude Course Direction KTS MPH feet Rate Location/Type
07:26PM 30.8617 -106.4200 345° North 408 470 36,000  Level Albuquerque Center
07:27PM 30.9711 -106.4547 345° North 408 470 36,000  Level Albuquerque Center
07:28PM 31.0833 -106.4894 345° North 414 476 36,000  Level Albuquerque Center
07:29PM 31.1994 -106.5275 344° North 415 478 36,000  Level Albuquerque Center
07:30PM 31.3122 -106.5617 345° North 416 479 36,000  Level Albuquerque Center
07:31PM 31.4428 -106.6036 345° North 423 487 36,000  Level Albuquerque Center
07:32PM 31.5561 -106.6386 345° North 421 484 36,000  Level Albuquerque Center
07:33PM 31.6689 -106.6742 345° North 421 484 36,000  Level Albuquerque Center
07:34PM 31.7825 -106.7100 345° North 423 487 36,000  Level Albuquerque Center
07:35PM 31.8942 -106.7497 343° North 420 483 36,000  Level Albuquerque Center
07:36PM 32.0053 -106.7917 342° North 419 482 36,000  Level Albuquerque Center
07:37PM 32.1164 -106.8331 342° North 420 483 36,000  Level Albuquerque Center
07:38PM 32.2456 -106.8814 342° North 421 484 36,000  Level Albuquerque Center
07:39PM 32.3586 -106.9247 342° North 425 489 36,000  Level Albuquerque Center
07:40PM 32.4619 -106.9639 342° North 426 490 36,000  Level Albuquerque Center
07:41PM 32.5753 -107.0081 342° North 427 491 36,000  Level Albuquerque Center
07:42PM 32.7106 -107.0606 342° North 427 491 36,000  Level Albuquerque Center
07:43PM 32.8075 -107.0989 342° North 429 494 36,000  Level Albuquerque Center
07:44PM 32.9422 -107.1503 342° North 426 490 36,000  Level Albuquerque Center
07:45PM 33.0553 -107.1953 342° North 429 494 36,000  Level Albuquerque Center
07:46PM 33.1686 -107.2372 343° North 427 491 36,000  Level Albuquerque Center
07:47PM 33.2831 -107.2806 342° North 431 496 36,000  Level Albuquerque Center
07:48PM 33.4014 -107.3111 348° North 433 498 36,000  Level Albuquerque Center
07:50PM 33.5219 -107.3383 349° North 439 505 36,000  Level Albuquerque Center
07:51PM 33.6425 -107.3683 348° North 441 507 36,000  Level Albuquerque Center
07:52PM 33.7633 -107.3983 348° North 442 509 36,000 180 Level Albuquerque Center
07:53PM 33.9081 -107.4353 348° North 442 509 36,400 480 Climbing Albuquerque Center
07:54PM 34.0286 -107.4642 349° North 441 507 37,000 240 Climbing Albuquerque Center
07:55PM 34.1478 -107.4933 349° North 439 505 37,000  Level Albuquerque Center
07:56PM 34.2672 -107.5231 348° North 439 505 37,000  Level Albuquerque Center
07:57PM 34.3872 -107.5547 348° North 443 510 37,000  Level Albuquerque Center
07:58PM 34.5092 -107.5839 349° North 445 512 37,000  Level Albuquerque Center
07:59PM 34.6306 -107.6144 348° North 444 511 37,000  Level Albuquerque Center
08:00PM 34.7528 -107.6453 348° North 444 511 37,000  Level Albuquerque Center
08:01PM 34.8992 -107.6828 348° North 445 512 37,000  Level Albuquerque Center
08:02PM 35.0217 -107.7131 349° North 445 512 37,000  Level Albuquerque Center
08:03PM 35.1347 -107.7431 348° North 444 511 37,000 -180 Level Albuquerque Center
08:04PM 35.2692 -107.7756 349° North 441 507 36,700 -540 Descending Albuquerque Center
08:05PM 35.3842 -107.8044 348° North 440 506 36,000 -360 Descending Albuquerque Center
08:06PM 35.5189 -107.8403 348° North 443 510 36,000  Level Albuquerque Center
08:07PM 35.6342 -107.8694 348° North 443 510 36,000  Level Albuquerque Center
08:08PM 35.7686 -107.9039 348° North 442 509 36,000  Level Albuquerque Center
08:09PM 35.8850 -107.9344 348° North 445 512 36,000  Level Albuquerque Center
08:10PM 36.0219 -107.9694 348° North 450 518 36,000  Level Albuquerque Center
08:11PM 36.1389 -108.0008 348° North 450 518 36,000  Level Albuquerque Center
08:11PM 36.1783 -108.0103 349° North 451 519 36,000  Level Denver Center
08:12PM 36.3156 -108.0469 348° North 453 521 36,000  Level Denver Center
08:14PM 36.4339 -108.0772 348° North 454 522 36,000  Level Denver Center
08:15PM 36.5744 -108.1142 348° North 460 529 36,000  Level Denver Center
08:16PM 36.6950 -108.1478 347° North 463 533 36,000  Level Denver Center
08:17PM 36.8358 -108.1844 348° North 463 533 36,000  Level Denver Center
08:18PM 36.9567 -108.2167 348° North 463 533 36,000  Level Denver Center
08:19PM 37.0975 -108.2544 348° North 466 536 36,000  Level Denver Center
08:20PM 37.2178 -108.2861 348° North 462 532 36,000  Level Denver Center
08:21PM 37.3586 -108.3250 348° North 462 532 36,000  Level Denver Center
08:22PM 37.4803 -108.3569 348° North 464 534 36,000  Level Denver Center
08:23PM 37.6064 -108.3697 355° North 477 549 36,000  Level Denver Center
08:24PM 37.7522 -108.3789 357° North 471 542 36,000  Level Denver Center
08:25PM 37.8778 -108.3903 356° North 471 542 36,000  Level Denver Center
08:26PM 38.0236 -108.4056 355° North 470 541 36,000  Level Denver Center
08:27PM 38.1533 -108.4414 348° North 457 526 36,000  Level Denver Center
08:28PM 38.2733 -108.4778 347° North 461 531 36,000  Level Denver Center
08:29PM 38.4128 -108.5189 347° North 461 531 36,000  Level Denver Center
08:30PM 38.5306 -108.5561 346° North 456 525 36,000  Level Denver Center
08:31PM 38.6483 -108.5931 346° North 455 524 36,000 180 Level Denver Center
08:32PM 38.7867 -108.6361 346° North 460 529 36,400 480 Climbing Denver Center
08:33PM 38.9047 -108.6733 346° North 456 525 37,000 240 Climbing Denver Center
08:34PM 39.0428 -108.7169 346° North 457 526 37,000  Level Denver Center
08:35PM 39.1622 -108.7547 346° North 461 531 37,000  Level Denver Center
08:36PM 39.3022 -108.7986 346° North 460 529 37,000  Level Denver Center
08:37PM 39.4222 -108.8367 346° North 460 529 37,000  Level Denver Center
08:38PM 39.5419 -108.8739 347° North 456 525 37,000  Level Denver Center
08:39PM 39.6833 -108.9200 346° North 457 526 37,000  Level Denver Center
08:40PM 39.8011 -108.9556 347° North 450 518 37,000  Level Denver Center
08:41PM 39.9175 -108.9928 346° North 448 516 37,000  Level Denver Center
08:42PM 39.9953 -109.0183 346° North 447 514 37,000  Level Salt Lake Center
08:43PM 40.1094 -109.0547 346° North 443 510 37,000  Level Salt Lake Center
08:43PM 40.1675 -109.0736 346° North 446 513 37,000  Level Denver Center
08:44PM 40.3022 -109.1169 346° North 446 513 37,000  Level Denver Center
08:45PM 40.3606 -109.1356 346° North 446 513 37,000  Level Salt Lake Center
08:45PM 40.4181 -109.1544 346° North 447 514 37,000  Level Denver Center
08:46PM 40.5533 -109.1983 346° North 449 517 37,000  Level Denver Center
08:47PM 40.6714 -109.2367 346° North 454 522 37,000  Level Denver Center
08:48PM 40.7303 -109.2561 346° North 455 524 37,000  Level Salt Lake Center
08:49PM 40.8578 -109.2978 346° North 457 526 37,000  Level Salt Lake Center
08:50PM 40.9958 -109.3425 346° North 456 525 37,000  Level Salt Lake Center
08:51PM 41.1136 -109.3817 346° North 454 522 37,000  Level Salt Lake Center
08:52PM 41.2497 -109.4281 346° North 450 518 37,000  Level Salt Lake Center
08:53PM 41.3661 -109.4672 346° North 447 514 37,000  Level Salt Lake Center
08:54PM 41.4825 -109.5056 346° North 446 513 37,000  Level Salt Lake Center
08:55PM 41.6172 -109.5511 346° North 444 511 37,000  Level Salt Lake Center
08:56PM 41.7333 -109.5953 344° North 450 518 37,000  Level Salt Lake Center
08:57PM 41.8458 -109.6511 340° North 450 518 37,000  Level Salt Lake Center
08:58PM 41.9733 -109.7275 336° Northwest 448 516 37,000  Level Salt Lake Center
08:59PM 42.0833 -109.7942 336° Northwest 452 520 37,000  Level Salt Lake Center
09:00PM 42.2069 -109.8811 332° Northwest 450 518 37,000  Level Salt Lake Center
09:01PM 42.3136 -109.9544 333° Northwest 450 518 37,000  Level Salt Lake Center
09:02PM 42.4197 -110.0286 333° Northwest 448 516 37,000  Level Salt Lake Center
09:03PM 42.5450 -110.1139 333° Northwest 451 519 37,000  Level Salt Lake Center
09:04PM 42.6539 -110.1842 335° Northwest 453 521 37,000  Level Salt Lake Center
09:05PM 42.7803 -110.2689 334° Northwest 454 522 37,000  Level Salt Lake Center
09:06PM 42.8939 -110.3164 343° North 447 514 37,000  Level Salt Lake Center
09:08PM 43.0225 -110.3539 348° North 447 514 37,000  Level Salt Lake Center
09:09PM 43.1386 -110.3878 348° North 447 514 37,000  Level Salt Lake Center
09:10PM 43.2617 -110.4264 347° North 445 512 37,000  Level Salt Lake Center
09:11PM 43.3967 -110.4661 348° North 444 511 37,000  Level Salt Lake Center
09:12PM 43.5164 -110.5042 347° North 445 512 37,000  Level Salt Lake Center
09:13PM 43.6392 -110.5433 347° North 446 513 37,000  Level Salt Lake Center
09:14PM 43.7539 -110.5811 347° North 444 511 37,000  Level Salt Lake Center
09:15PM 43.8897 -110.6242 347° North 449 517 37,000  Level Salt Lake Center
09:16PM 44.0042 -110.6603 347° North 443 510 37,000  Level Salt Lake Center
09:17PM 44.1372 -110.7033 347° North 439 505 37,000  Level Salt Lake Center
09:18PM 44.2517 -110.7411 347° North 442 509 37,000  Level Salt Lake Center
09:19PM 44.3661 -110.7783 347° North 442 509 37,000  Level Salt Lake Center
09:20PM 44.5000 -110.8214 347° North 442 509 37,000  Level Salt Lake Center
09:21PM 44.6153 -110.8594 347° North 447 514 37,000  Level Salt Lake Center
09:22PM 44.7497 -110.9033 347° North 447 514 37,000  Level Salt Lake Center
09:23PM 44.8681 -110.9419 347° North 456 525 37,000  Level Salt Lake Center
09:24PM 45.0033 -110.9858 347° North 452 520 37,000  Level Salt Lake Center
09:25PM 45.1183 -111.0231 347° North 451 519 37,000  Level Salt Lake Center
09:26PM 45.2383 -111.0633 347° North 445 512 37,000  Level Salt Lake Center
09:27PM 45.3583 -111.1039 347° North 443 510 37,000  Level Salt Lake Center
09:28PM 45.4781 -111.1450 346° North 442 509 37,000  Level Salt Lake Center
09:29PM 45.5975 -111.1856 347° North 441 507 37,000  Level Salt Lake Center
09:30PM 45.7189 -111.2275 346° North 440 506 37,000  Level Salt Lake Center
09:31PM 45.8444 -111.2714 346° North 444 511 37,000  Level Salt Lake Center
09:32PM 45.9636 -111.3117 347° North 436 502 37,000  Level Salt Lake Center
09:33PM 46.0811 -111.3519 347° North 433 498 37,000  Level Salt Lake Center
09:34PM 46.1997 -111.3931 347° North 436 502 37,000  Level Salt Lake Center
09:35PM 46.3411 -111.4422 347° North 436 502 37,000  Level Salt Lake Center
09:36PM 46.4567 -111.4839 346° North 436 502 37,000  Level Salt Lake Center
09:37PM 46.5758 -111.5217 348° North 436 502 37,000  Level Salt Lake Center
09:38PM 46.6947 -111.5639 346° North 439 505 37,000  Level Salt Lake Center
09:39PM 46.8147 -111.6072 346° North 442 509 37,000  Level Salt Lake Center
09:40PM 46.9336 -111.6494 346° North 442 509 37,000  Level Salt Lake Center
09:41PM 47.0519 -111.6911 347° North 439 505 37,000  Level Salt Lake Center
09:42PM 47.1708 -111.7336 346° North 439 505 37,000  Level Salt Lake Center
09:43PM 47.2875 -111.7778 346° North 433 498 37,000  Level Salt Lake Center
09:44PM 47.4050 -111.8197 346° North 432 497 37,000  Level Salt Lake Center
09:45PM 47.5228 -111.8619 346° North 432 497 37,000  Level Salt Lake Center
09:46PM 47.6664 -111.9156 346° North 438 504 37,000  Level Salt Lake Center
09:47PM 47.7836 -111.9592 346° North 427 491 37,000  Level Salt Lake Center
09:48PM 47.9000 -112.0028 346° North 428 493 37,000  Level Salt Lake Center
09:49PM 48.0197 -112.0458 346° North 438 504 37,000  Level Salt Lake Center
09:50PM 48.1356 -112.0900 346° North 433 498 37,000  Level Salt Lake Center
09:51PM 48.2533 -112.1336 346° North 434 499 37,000  Level Salt Lake Center
09:53PM 48.3697 -112.1783 346° North 433 498 37,000  Level Salt Lake Center
09:54PM 48.4872 -112.2233 346° North 437 503 37,000  Level Salt Lake Center
09:55PM 48.6056 -112.2678 346° North 438 504 37,000  Level Salt Lake Center
09:56PM 48.7228 -112.3136 346° North 437 503 37,000  Level Salt Lake Center
09:57PM 48.8636 -112.3672 346° North 435 501 37,000  Level Salt Lake Center
09:57PM 48.9000 -112.3833 344° North 430 495 37,000  Level Edmonton Center
09:58PM 49.0000 -112.4667 331° Northwest 430 495 37,000  Level Edmonton Center
09:59PM 49.1167 -112.5000 349° North 430 495 37,000  Level Edmonton Center
10:00PM 49.2333 -112.5500 344° North 430 495 37,000 -300 Level Edmonton Center
10:01PM 49.3500 -112.6000 344° North 420 483 36,500 -1,200 Descending Edmonton Center
10:02PM 49.4667 -112.6333 349° North 410 472 34,600 -1,860 Descending Edmonton Center
10:03PM 49.5833 -112.6833 344° North 400 460 32,800 -1,860 Descending Edmonton Center
10:04PM 49.6833 -112.7500 337° Northwest 380 437 30,900 -1,800 Descending Edmonton Center
10:05PM 49.7500 -112.8167 327° Northwest 370 426 29,300 -1,560 Descending Edmonton Center
10:06PM 49.8500 -112.8833 337° Northwest 360 414 27,800 -1,620 Descending Edmonton Center
10:07PM 49.9500 -112.9667 332° Northwest 350 403 26,100 -1,680 Descending Edmonton Center
10:08PM 50.0333 -113.0333 333° Northwest 340 391 24,500 -1,680 Descending Edmonton Center
10:09PM 50.1167 -113.1000 333° Northwest 330 380 22,800 -1,680 Descending Edmonton Center
10:10PM 50.1833 -113.1667 327° Northwest 320 368 21,200 -1,620 Descending Edmonton Center
10:11PM 50.2667 -113.2333 333° Northwest 330 380 19,600 -1,680 Descending Edmonton Center
10:12PM 50.3500 -113.3000 333° Northwest 330 380 17,900 -1,560 Descending Edmonton Center
10:13PM 50.4333 -113.3333 346° North 320 368 16,500 -1,560 Descending Edmonton Center
10:14PM 50.5000 -113.4000 328° Northwest 310 357 14,800 -1,620 Descending Edmonton Center
10:15PM 50.5667 -113.4667 328° Northwest 300 345 13,300 -1,440 Descending Edmonton Center
10:16PM 50.6500 -113.5500 328° Northwest 290 334 12,000 -720 Descending Edmonton Center
10:17PM 50.7167 -113.5833 342° North 280 322 11,900 -240 Descending Edmonton Center
10:18PM 50.8000 -113.6500 333° Northwest 290 334 11,600 -300 Descending Edmonton Center
10:19PM 50.8500 -113.7167 320° Northwest 290 334 11,300 -1,020 Descending Edmonton Center
10:20PM 50.9000 -113.8000 314° West 280 322 9,600 -1,680 Descending Edmonton Center
10:21PM 50.9500 -113.9167 304° West 290 334 8,000 -840 Descending Edmonton Center
10:22PM 50.9833 -114.0333 294° West 280 322 8,000  Level Edmonton Center
10:23PM 51.0333 -114.1333 309° West 250 288 8,000  Level Edmonton Center
10:24PM 51.0500 -114.2167 288° West 240 276 8,000 -300 Level Edmonton Center
10:25PM 51.1000 -114.3000 314° West 250 288 7,400 -780 Descending Edmonton Center
10:26PM 51.1500 -114.3167 348° North 230 265 6,500 -780 Descending Edmonton Center
10:27PM 51.1500 -114.2333 90° East 190 219 5,900 -600 Descending Edmonton Center
10:28PM 51.1333 -114.1500 108° East 170 196 5,400 -840 Descending Edmonton Center
10:29PM 51.1167 -114.1000 118° Southeast 160 184 4,300 -900 Descending Edmonton Center
10:30PM 51.0833 -114.0333 129° Southeast 160 184 3,600 -720 Descending Edmonton Center